Time;durP1;ratioP1;P1;durP2;ratioP2;P2;SDS_P1;SDS_P2;PMS_P1;PMS_P2;Temp;Humidity;BMP_temperature;BMP_pressure;BME280_temperature;BME280_humidity;BME280_pressure;Samples;Min_cycle;Max_cycle;Signal;HPM_P1;HPM_P2
2024/04/23 00:01:11;;;;;;;6.27;3.60;;;3.20;92.60;;;;;;5415849;26;20222;-64
2024/04/23 00:03:37;;;;;;;5.33;3.70;;;3.20;92.50;;;;;;5416256;26;20220;-64
2024/04/23 00:06:02;;;;;;;5.33;3.00;;;3.20;92.30;;;;;;5416059;26;20262;-63
2024/04/23 00:08:28;;;;;;;5.20;3.70;;;3.20;92.50;;;;;;5416166;26;20332;-64
2024/04/23 00:10:54;;;;;;;4.90;3.97;;;3.30;92.90;;;;;;5415745;26;20219;-64
2024/04/23 00:13:19;;;;;;;4.80;3.17;;;3.30;92.80;;;;;;5416499;26;20251;-63
2024/04/23 00:15:45;;;;;;;5.90;4.40;;;3.30;92.80;;;;;;5416107;26;20254;-63
2024/04/23 00:18:10;;;;;;;4.70;4.10;;;3.30;92.20;;;;;;5416005;26;20273;-64
2024/04/23 00:20:36;;;;;;;6.33;3.90;;;3.30;92.40;;;;;;5415735;26;20258;-64
2024/04/23 00:23:02;;;;;;;4.10;3.50;;;3.30;92.40;;;;;;5414418;26;20220;-64
2024/04/23 00:25:28;;;;;;;3.03;2.43;;;3.30;92.30;;;;;;5416003;26;20223;-64
2024/04/23 00:27:53;;;;;;;5.10;3.50;;;3.30;92.20;;;;;;5415997;26;20461;-64
2024/04/23 00:30:19;;;;;;;3.93;3.00;;;3.10;92.40;;;;;;5415382;26;20698;-63
2024/04/23 00:32:44;;;;;;;5.27;2.73;;;3.20;92.50;;;;;;5415873;26;20223;-63
2024/04/23 00:35:10;;;;;;;4.93;4.40;;;3.20;92.70;;;;;;5415754;26;20805;-64
2024/04/23 00:37:36;;;;;;;3.53;3.23;;;3.20;92.30;;;;;;5415613;26;20645;-64
2024/04/23 00:40:01;;;;;;;4.60;3.10;;;3.10;92.60;;;;;;5415656;26;20278;-64
2024/04/23 00:42:27;;;;;;;5.90;3.80;;;3.10;92.40;;;;;;5415534;26;20263;-64
2024/04/23 00:44:54;;;;;;;5.20;3.47;;;3.10;92.50;;;;;;5415631;26;20264;-63
2024/04/23 00:47:21;;;;;;;6.38;3.40;;;3.00;92.10;;;;;;5415538;26;20756;-64
2024/04/23 00:49:47;;;;;;;5.63;4.20;;;3.00;92.20;;;;;;5415615;26;20324;-63
2024/04/23 00:52:13;;;;;;;2.60;2.40;;;2.90;92.40;;;;;;5415328;26;20223;-63
2024/04/23 00:54:39;;;;;;;7.50;3.20;;;2.90;92.40;;;;;;5415792;26;20219;-62
2024/04/23 00:57:05;;;;;;;3.85;2.90;;;2.80;92.00;;;;;;5415708;26;20570;-64
2024/04/23 00:59:31;;;;;;;6.00;3.40;;;2.90;92.20;;;;;;5415144;26;20208;-64
2024/04/23 01:01:57;;;;;;;6.10;2.97;;;2.80;92.00;;;;;;5415228;26;20273;-63
2024/04/23 01:04:23;;;;;;;7.53;2.78;;;2.80;92.10;;;;;;5415159;26;21030;-64
2024/04/23 01:06:49;;;;;;;2.83;2.63;;;2.80;92.10;;;;;;5415255;26;20223;-63
2024/04/23 01:09:17;;;;;;;3.08;2.85;;;2.80;92.30;;;;;;5415020;26;20265;-63
2024/04/23 01:11:42;;;;;;;3.72;3.20;;;2.70;92.50;;;;;;5415029;26;20246;-64
2024/04/23 01:14:08;;;;;;;6.57;3.70;;;2.60;92.60;;;;;;5415756;26;20211;-64
2024/04/23 01:16:40;;;;;;;5.03;2.80;;;2.70;92.60;;;;;;5415098;26;20266;-63
2024/04/23 01:19:20;;;;;;;4.28;2.65;;;2.60;92.60;;;;;;5414771;26;20240;-64
2024/04/23 01:21:59;;;;;;;3.30;3.00;;;2.50;92.80;;;;;;5414918;26;20219;-64
2024/04/23 01:24:32;;;;;;;2.50;2.30;;;2.60;92.40;;;;;;5414976;26;20223;-64
2024/04/23 01:26:58;;;;;;;5.50;3.50;;;2.60;92.30;;;;;;5414975;26;20260;-63
2024/04/23 01:29:25;;;;;;;3.10;2.53;;;2.70;92.30;;;;;;5414750;26;20320;-64
2024/04/23 01:31:52;;;;;;;4.05;3.85;;;2.60;92.20;;;;;;5414719;26;20234;-64
2024/04/23 01:34:18;;;;;;;4.13;3.15;;;2.60;92.40;;;;;;5416361;26;20266;-64
2024/04/23 01:36:44;;;;;;;3.50;3.28;;;2.50;92.30;;;;;;5418329;26;20215;-64
2024/04/23 01:39:10;;;;;;;6.03;3.20;;;2.50;92.10;;;;;;5418046;26;20637;-64
2024/04/23 01:41:36;;;;;;;4.03;3.70;;;2.40;92.20;;;;;;5418049;26;20445;-63
2024/04/23 01:44:02;;;;;;;6.30;3.53;;;2.30;92.30;;;;;;5418245;26;20215;-63
2024/04/23 01:46:28;;;;;;;6.72;3.72;;;2.30;92.30;;;;;;5418181;26;20440;-63
2024/04/23 01:48:54;;;;;;;4.15;3.03;;;2.40;92.40;;;;;;5418098;26;20295;-63
2024/04/23 01:51:20;;;;;;;5.03;2.90;;;2.40;92.60;;;;;;5417727;26;20219;-63
2024/04/23 01:53:46;;;;;;;5.82;3.63;;;2.30;92.50;;;;;;5418307;26;20444;-64
2024/04/23 01:56:11;;;;;;;3.60;3.27;;;2.40;92.70;;;;;;5418502;26;20551;-64
2024/04/23 01:58:37;;;;;;;4.03;3.70;;;2.40;92.50;;;;;;5418182;26;20226;-64
2024/04/23 02:01:04;;;;;;;4.50;4.10;;;2.40;92.30;;;;;;5417717;26;20581;-63
2024/04/23 02:03:31;;;;;;;3.58;2.60;;;2.40;92.40;;;;;;5417921;26;20254;-64
2024/04/23 02:05:59;;;;;;;3.25;3.00;;;2.40;92.40;;;;;;5417962;26;20291;-64
2024/04/23 02:08:25;;;;;;;5.90;3.58;;;2.50;92.40;;;;;;5417820;26;20582;-64
2024/04/23 02:10:50;;;;;;;3.30;2.70;;;2.50;92.50;;;;;;5417540;26;20319;-64
2024/04/23 02:13:16;;;;;;;3.77;3.47;;;2.40;92.30;;;;;;5417775;26;20533;-64
2024/04/23 02:15:42;;;;;;;6.80;5.17;;;2.40;92.40;;;;;;5417776;26;20334;-63
2024/04/23 02:18:07;;;;;;;5.63;3.83;;;2.50;92.40;;;;;;5417582;26;20230;-64
2024/04/23 02:20:33;;;;;;;5.33;3.93;;;2.40;92.50;;;;;;5417261;26;20215;-64
2024/04/23 02:22:59;;;;;;;3.20;2.93;;;2.40;92.30;;;;;;5417572;26;20253;-64
2024/04/23 02:25:25;;;;;;;3.40;3.10;;;2.60;92.30;;;;;;5417886;26;20223;-64
2024/04/23 02:27:51;;;;;;;4.53;3.80;;;2.60;92.30;;;;;;5417768;26;20224;-64
2024/04/23 02:30:17;;;;;;;3.60;3.30;;;2.60;92.00;;;;;;5417765;26;20223;-63
2024/04/23 02:32:43;;;;;;;4.73;3.60;;;2.60;92.40;;;;;;5417322;26;20805;-64
2024/04/23 02:35:08;;;;;;;3.60;3.30;;;2.60;92.50;;;;;;5417432;26;20226;-63
2024/04/23 02:37:34;;;;;;;4.53;3.93;;;2.70;92.40;;;;;;5386101;26;20261;-64
2024/04/23 02:39:59;;;;;;;3.20;2.90;;;2.70;91.90;;;;;;5417531;26;20223;-64
2024/04/23 02:42:25;;;;;;;5.50;3.93;;;2.60;92.00;;;;;;5417473;26;20214;-64
2024/04/23 02:44:51;;;;;;;2.90;2.60;;;2.60;92.40;;;;;;5416792;26;20227;-64
2024/04/23 02:47:17;;;;;;;3.90;3.53;;;2.60;92.60;;;;;;5416590;26;20216;-64
2024/04/23 02:49:42;;;;;;;5.05;4.50;;;2.70;92.60;;;;;;5415120;26;20270;-63
2024/04/23 02:52:08;;;;;;;7.40;3.50;;;2.80;92.30;;;;;;5417224;26;20218;-64
2024/04/23 02:54:34;;;;;;;6.73;4.80;;;2.70;92.10;;;;;;5385979;26;20311;-64
2024/04/23 02:56:59;;;;;;;3.70;3.40;;;2.60;92.10;;;;;;5417161;26;20231;-64
2024/04/23 02:59:25;;;;;;;4.33;4.00;;;2.70;92.10;;;;;;5416900;26;20230;-63
2024/04/23 03:02:06;;;;;;;4.90;3.50;;;2.60;92.20;;;;;;5416913;26;20716;-63
2024/04/23 03:04:33;;;;;;;5.60;3.83;;;2.60;92.20;;;;;;5417004;26;20230;-64
2024/04/23 03:06:58;;;;;;;5.75;3.38;;;2.70;92.20;;;;;;5417091;26;20598;-64
2024/04/23 03:09:24;;;;;;;4.07;3.60;;;2.70;92.20;;;;;;5416827;26;20277;-64
2024/04/23 03:11:51;;;;;;;7.00;4.60;;;2.60;92.20;;;;;;5416735;26;20281;-64
2024/04/23 03:14:16;;;;;;;5.25;3.33;;;2.50;92.40;;;;;;5417077;26;20216;-63
2024/04/23 03:16:42;;;;;;;7.13;3.53;;;2.60;92.60;;;;;;5416870;26;20799;-64
2024/04/23 03:19:08;;;;;;;3.27;2.90;;;2.50;92.40;;;;;;5416657;26;20234;-64
2024/04/23 03:21:33;;;;;;;4.03;3.50;;;2.40;92.60;;;;;;5416767;26;20222;-64
2024/04/23 03:23:59;;;;;;;5.77;3.90;;;2.40;92.70;;;;;;5417061;26;20777;-64
2024/04/23 03:26:24;;;;;;;6.30;4.57;;;2.40;92.60;;;;;;5416732;26;20288;-64
2024/04/23 03:28:50;;;;;;;5.50;4.10;;;2.50;92.70;;;;;;5416867;26;20268;-64
2024/04/23 03:31:16;;;;;;;5.37;4.97;;;2.60;92.80;;;;;;5416239;26;20220;-64
2024/04/23 03:33:41;;;;;;;6.83;3.93;;;2.50;92.50;;;;;;5416616;26;20262;-63
2024/04/23 03:36:07;;;;;;;7.30;3.73;;;2.50;92.40;;;;;;5416710;26;20265;-63
2024/04/23 03:38:33;;;;;;;3.75;3.10;;;2.40;92.50;;;;;;5457114;21;20291;-64
2024/04/23 03:40:59;;;;;;;4.63;4.23;;;2.40;92.70;;;;;;5451764;26;20560;-63
2024/04/23 03:43:24;;;;;;;6.90;3.90;;;2.40;92.90;;;;;;5452716;26;20218;-62
2024/04/23 03:45:50;;;;;;;5.33;4.60;;;2.40;92.90;;;;;;5452366;26;20325;-63
2024/04/23 03:48:15;;;;;;;6.87;4.63;;;2.30;92.80;;;;;;5452341;26;20225;-63
2024/04/23 03:50:41;;;;;;;6.03;4.63;;;2.30;92.80;;;;;;5451980;26;20333;-64
2024/04/23 03:53:07;;;;;;;4.67;4.17;;;2.40;92.80;;;;;;5452312;26;20310;-63
2024/04/23 03:55:32;;;;;;;5.97;4.73;;;2.40;92.80;;;;;;5452377;26;20210;-63
2024/04/23 03:57:59;;;;;;;5.90;5.13;;;2.40;92.90;;;;;;5451664;26;20217;-63
2024/04/23 04:00:24;;;;;;;6.88;4.63;;;2.40;92.80;;;;;;5419946;26;20243;-63
2024/04/23 04:08:18;;;;;;;5.00;4.05;;;2.30;92.60;;;;;;5452489;26;20262;-63
2024/04/23 04:10:44;;;;;;;4.03;3.43;;;2.20;92.70;;;;;;5452586;26;20210;-63
2024/04/23 04:13:10;;;;;;;4.70;3.83;;;2.20;92.90;;;;;;5451970;26;20255;-63
2024/04/23 04:15:35;;;;;;;3.03;2.83;;;2.30;92.80;;;;;;5451959;26;20284;-63
2024/04/23 04:18:01;;;;;;;5.00;4.13;;;2.30;92.70;;;;;;5451759;26;20236;-63
2024/04/23 04:20:26;;;;;;;6.90;3.70;;;2.30;92.70;;;;;;5451477;26;20232;-63
2024/04/23 04:22:52;;;;;;;5.10;4.40;;;2.20;92.70;;;;;;5451851;26;20813;-63
2024/04/23 04:25:18;;;;;;;5.23;4.70;;;2.10;92.70;;;;;;5452267;26;20217;-63
2024/04/23 04:27:43;;;;;;;4.73;3.83;;;2.10;92.80;;;;;;5451622;26;20226;-63
2024/04/23 04:30:09;;;;;;;5.80;4.07;;;2.10;92.80;;;;;;5451633;26;20213;-63
2024/04/23 04:32:35;;;;;;;4.93;4.53;;;2.00;93.00;;;;;;5451830;26;20207;-63
2024/04/23 04:35:01;;;;;;;4.93;4.43;;;2.10;93.10;;;;;;5452014;26;20214;-63
2024/04/23 04:37:33;;;;;;;7.33;4.83;;;2.20;92.80;;;;;;5451701;26;20588;-63
2024/04/23 04:39:59;;;;;;;5.28;4.03;;;2.20;92.70;;;;;;5451543;26;20213;-63
2024/04/23 04:42:24;;;;;;;4.33;3.70;;;2.20;92.80;;;;;;5451254;26;20221;-63
2024/04/23 04:44:50;;;;;;;6.63;3.77;;;2.20;92.80;;;;;;5451431;26;20225;-63
2024/04/23 04:47:15;;;;;;;5.13;4.63;;;2.20;92.70;;;;;;5451497;26;20221;-63
2024/04/23 04:49:41;;;;;;;6.30;5.20;;;2.20;92.70;;;;;;5451216;26;20721;-63
2024/04/23 04:52:07;;;;;;;4.87;4.40;;;2.30;92.60;;;;;;5451140;26;20210;-63
2024/04/23 04:54:32;;;;;;;5.40;4.47;;;2.40;92.60;;;;;;5451437;26;20260;-63
2024/04/23 04:56:58;;;;;;;4.70;4.27;;;2.40;92.60;;;;;;5451159;26;20273;-64
2024/04/23 04:59:23;;;;;;;6.43;4.50;;;2.40;92.60;;;;;;5450962;26;20233;-64
2024/04/23 05:01:49;;;;;;;9.37;4.23;;;2.40;92.70;;;;;;5451276;26;20251;-63
2024/04/23 05:04:15;;;;;;;6.23;3.97;;;2.40;92.30;;;;;;5451266;26;20217;-63
2024/04/23 05:06:40;;;;;;;4.97;4.43;;;2.40;92.50;;;;;;5451308;26;20750;-63
2024/04/23 05:09:06;;;;;;;5.60;4.30;;;2.30;92.40;;;;;;5449755;26;20271;-63
2024/04/23 05:11:32;;;;;;;4.30;3.57;;;2.30;92.30;;;;;;5450710;26;20226;-63
2024/04/23 05:13:57;;;;;;;7.00;3.53;;;2.40;92.10;;;;;;5450967;26;20210;-63
2024/04/23 05:16:23;;;;;;;5.23;3.87;;;2.50;92.10;;;;;;5451042;26;20217;-63
2024/04/23 05:18:48;;;;;;;4.73;3.80;;;2.50;91.70;;;;;;5450818;26;20223;-63
2024/04/23 05:21:14;;;;;;;12.40;4.23;;;2.70;91.70;;;;;;5450672;26;20285;-63
2024/04/23 05:23:40;;;;;;;5.67;3.73;;;2.80;91.40;;;;;;5451406;26;20609;-63
2024/04/23 05:26:05;;;;;;;4.20;3.80;;;3.10;91.50;;;;;;5450675;26;20257;-64
2024/04/23 05:28:31;;;;;;;6.90;4.13;;;3.30;90.70;;;;;;5450679;26;20995;-64
2024/04/23 05:33:41;;;;;;;4.32;3.85;;;3.40;90.50;;;;;;5450676;26;20314;-63
2024/04/23 05:36:09;;;;;;;7.50;3.83;;;3.40;90.40;;;;;;5450397;26;20743;-63
2024/04/23 05:38:35;;;;;;;4.20;3.83;;;3.70;90.30;;;;;;5450232;26;20218;-63
2024/04/23 05:41:01;;;;;;;4.00;3.70;;;4.30;90.10;;;;;;5450035;26;20620;-64
2024/04/23 05:43:26;;;;;;;5.23;3.93;;;5.60;87.70;;;;;;5450342;26;20220;-64
2024/04/23 05:45:52;;;;;;;5.30;3.83;;;6.80;82.50;;;;;;5450430;26;20259;-63
2024/04/23 05:48:55;;;;;;;3.27;2.97;;;6.80;77.50;;;;;;5450398;26;20225;-64
2024/04/23 05:51:58;;;;;;;4.28;3.88;;;6.60;78.30;;;;;;5450271;26;20222;-63
2024/04/23 05:55:01;;;;;;;3.30;3.00;;;6.70;78.50;;;;;;5450164;26;20217;-63
2024/04/23 05:57:26;;;;;;;3.40;2.58;;;6.90;77.10;;;;;;5450027;26;20225;-63
2024/04/23 05:59:52;;;;;;;8.40;3.30;;;7.20;77.60;;;;;;5450015;26;20797;-64
2024/04/23 06:02:18;;;;;;;4.20;3.80;;;8.20;75.00;;;;;;5449969;26;20704;-64
2024/04/23 06:04:43;;;;;;;3.80;3.20;;;9.20;72.30;;;;;;5450143;26;20253;-64
2024/04/23 06:07:09;;;;;;;3.43;3.17;;;10.00;66.90;;;;;;5450071;26;20574;-64
2024/04/23 06:09:34;;;;;;;3.00;2.43;;;10.30;63.20;;;;;;5449806;26;20276;-63
2024/04/23 06:12:00;;;;;;;3.23;3.03;;;10.60;61.80;;;;;;5449679;26;20685;-64
2024/04/23 06:14:26;;;;;;;4.17;3.77;;;10.90;62.30;;;;;;5450040;26;20210;-64
2024/04/23 06:17:23;;;;;;;3.83;3.47;;;10.60;58.70;;;;;;5449954;26;20210;-64
2024/04/23 06:19:52;;;;;;;3.63;3.33;;;9.20;60.90;;;;;;5450544;26;20828;-64
2024/04/23 06:22:22;;;;;;;3.72;3.10;;;8.30;64.40;;;;;;5453162;26;20265;-63
2024/04/23 06:24:50;;;;;;;4.00;3.60;;;7.50;66.20;;;;;;5453400;26;20263;-63
2024/04/23 06:27:17;;;;;;;5.88;3.45;;;7.40;69.70;;;;;;5453246;26;20368;-64
2024/04/23 06:29:45;;;;;;;3.85;3.45;;;7.60;70.70;;;;;;5453170;26;20226;-63
2024/04/23 06:32:15;;;;;;;3.80;3.50;;;8.00;68.70;;;;;;5453238;26;20266;-64
2024/04/23 06:34:42;;;;;;;4.03;3.42;;;8.00;68.40;;;;;;5453177;26;20447;-64
2024/04/23 06:37:08;;;;;;;4.25;3.30;;;7.60;68.40;;;;;;5453480;26;20217;-63
2024/04/23 06:39:33;;;;;;;3.97;3.67;;;7.50;70.10;;;;;;5453081;26;20234;-64
2024/04/23 06:41:59;;;;;;;3.70;3.40;;;7.40;69.20;;;;;;5453288;26;20688;-63
2024/04/23 06:44:25;;;;;;;3.40;3.10;;;7.60;69.00;;;;;;5453268;26;20641;-63
2024/04/23 06:46:51;;;;;;;4.70;2.90;;;7.60;68.70;;;;;;5453094;26;20221;-64
2024/04/23 06:49:17;;;;;;;2.92;2.72;;;7.80;68.90;;;;;;5452811;26;20445;-64
2024/04/23 06:51:42;;;;;;;3.83;3.53;;;7.80;69.90;;;;;;5453031;26;20269;-63
2024/04/23 06:54:08;;;;;;;3.03;2.80;;;7.80;66.90;;;;;;5453473;26;20696;-63
2024/04/23 06:56:34;;;;;;;3.53;3.27;;;7.60;67.20;;;;;;5453779;26;20261;-64
2024/04/23 06:58:59;;;;;;;2.83;2.63;;;7.20;68.90;;;;;;5453689;26;20727;-65
2024/04/23 07:01:25;;;;;;;6.37;2.80;;;7.20;68.90;;;;;;5453452;26;20261;-64
2024/04/23 07:03:50;;;;;;;4.03;3.63;;;7.40;70.30;;;;;;5452985;26;20252;-65
2024/04/23 07:06:16;;;;;;;3.50;3.23;;;7.50;68.00;;;;;;5453034;26;20214;-65
2024/04/23 07:08:42;;;;;;;3.70;3.37;;;7.50;69.50;;;;;;5452834;26;20338;-65
2024/04/23 07:11:08;;;;;;;2.03;1.93;;;7.60;70.70;;;;;;5452759;26;20277;-65
2024/04/23 07:13:34;;;;;;;5.35;3.88;;;7.70;70.20;;;;;;5453127;26;20223;-66
2024/04/23 07:15:59;;;;;;;3.57;3.23;;;7.90;70.00;;;;;;5453034;26;20843;-65
2024/04/23 07:18:25;;;;;;;3.47;3.17;;;8.10;68.90;;;;;;5452952;26;20301;-65
2024/04/23 07:20:52;;;;;;;4.40;2.93;;;8.10;67.10;;;;;;5452599;26;20210;-65
2024/04/23 07:23:17;;;;;;;3.20;2.90;;;8.30;66.70;;;;;;5452780;26;20268;-65
2024/04/23 07:25:52;;;;;;;3.87;3.57;;;8.80;66.60;;;;;;5452846;26;20218;-65
2024/04/23 07:28:17;;;;;;;3.07;2.77;;;9.50;63.70;;;;;;5452740;26;20282;-65
2024/04/23 07:30:43;;;;;;;3.53;3.23;;;10.00;62.60;;;;;;5453263;26;20435;-65
2024/04/23 07:33:10;;;;;;;4.07;3.77;;;10.10;59.70;;;;;;5452149;26;20327;-65
2024/04/23 07:35:36;;;;;;;4.03;3.33;;;10.30;59.90;;;;;;5452838;26;20440;-65
2024/04/23 07:38:02;;;;;;;3.73;3.43;;;10.60;60.20;;;;;;5452815;26;20996;-65
2024/04/23 07:40:28;;;;;;;3.10;2.80;;;11.00;59.20;;;;;;5452482;26;20505;-65
2024/04/23 07:42:53;;;;;;;3.43;3.13;;;10.90;58.20;;;;;;5452704;26;20818;-65
2024/04/23 07:45:19;;;;;;;4.47;3.63;;;10.50;58.20;;;;;;5452806;26;20211;-65
2024/04/23 07:47:44;;;;;;;4.10;3.80;;;10.10;58.50;;;;;;5452266;26;20226;-65
2024/04/23 07:50:10;;;;;;;3.70;3.40;;;9.90;59.80;;;;;;5452391;26;20578;-65
2024/04/23 07:52:37;;;;;;;4.43;3.33;;;9.80;61.60;;;;;;5452299;26;20257;-65
2024/04/23 07:55:02;;;;;;;3.83;3.33;;;9.90;61.30;;;;;;5452294;26;20352;-66
2024/04/23 07:57:28;;;;;;;3.10;2.80;;;10.00;61.60;;;;;;5452239;26;20969;-65
2024/04/23 07:59:54;;;;;;;4.10;3.67;;;10.40;61.10;;;;;;5452259;26;20207;-65
2024/04/23 08:02:20;;;;;;;4.37;3.57;;;10.50;59.50;;;;;;5452053;26;20280;-65
2024/04/23 08:04:45;;;;;;;3.97;3.57;;;10.70;59.10;;;;;;5452246;26;20754;-65
2024/04/23 08:07:11;;;;;;;3.90;3.43;;;10.30;58.00;;;;;;5452292;26;20452;-65
2024/04/23 08:09:36;;;;;;;2.97;2.37;;;10.20;59.00;;;;;;5451785;26;20227;-65
2024/04/23 08:12:02;;;;;;;4.23;3.60;;;10.50;59.00;;;;;;5451985;26;20218;-65
2024/04/23 08:14:28;;;;;;;4.13;3.40;;;10.30;58.70;;;;;;5452471;26;20560;-65
2024/04/23 08:16:55;;;;;;;3.17;2.87;;;10.70;59.10;;;;;;5452302;26;20261;-65
2024/04/23 08:19:20;;;;;;;3.30;2.70;;;11.40;57.40;;;;;;5451923;26;20581;-65
2024/04/23 08:21:46;;;;;;;5.33;3.07;;;11.90;57.40;;;;;;5451849;26;20436;-65
2024/04/23 08:24:11;;;;;;;2.77;2.23;;;12.00;55.20;;;;;;5452068;26;20218;-65
2024/04/23 08:26:37;;;;;;;3.93;3.63;;;11.40;54.60;;;;;;5451934;26;20256;-65
2024/04/23 08:29:02;;;;;;;4.10;3.80;;;10.20;56.00;;;;;;5452046;26;20227;-66
2024/04/23 08:31:28;;;;;;;2.83;2.57;;;9.20;58.60;;;;;;5451356;26;20222;-65
2024/04/23 08:33:55;;;;;;;4.03;3.07;;;8.60;62.10;;;;;;5451858;26;20211;-65
2024/04/23 08:36:21;;;;;;;3.93;3.63;;;8.60;61.90;;;;;;5451783;26;20405;-65
2024/04/23 08:38:46;;;;;;;3.10;2.77;;;8.80;62.00;;;;;;5451531;26;20467;-65
2024/04/23 08:41:18;;;;;;;4.23;3.70;;;9.10;60.30;;;;;;5451351;26;20585;-65
2024/04/23 08:43:53;;;;;;;3.60;3.23;;;10.40;60.30;;;;;;5450012;26;20215;-65
2024/04/23 08:46:19;;;;;;;3.77;2.73;;;11.70;58.90;;;;;;5451664;26;20543;-65
2024/04/23 08:48:45;;;;;;;3.47;2.80;;;12.90;56.70;;;;;;5451530;26;21000;-65
2024/04/23 08:51:11;;;;;;;5.20;3.20;;;13.20;51.50;;;;;;5451140;26;20216;-65
2024/04/23 08:53:38;;;;;;;3.60;3.30;;;12.20;52.10;;;;;;5451431;26;20489;-66
2024/04/23 08:56:08;;;;;;;4.50;4.10;;;11.60;53.40;;;;;;5451485;26;20249;-65
2024/04/23 08:58:36;;;;;;;6.63;3.10;;;11.60;53.80;;;;;;5451207;26;20510;-65
2024/04/23 09:01:02;;;;;;;5.73;3.50;;;12.00;55.10;;;;;;5451082;26;20448;-65
2024/04/23 09:03:39;;;;;;;3.90;3.63;;;13.00;54.40;;;;;;5451261;26;20487;-65
2024/04/23 09:06:05;;;;;;;2.70;2.50;;;14.90;53.50;;;;;;5451353;26;20448;-65
2024/04/23 09:08:32;;;;;;;3.70;2.80;;;16.60;49.00;;;;;;5451183;26;20458;-65
2024/04/23 09:10:59;;;;;;;3.53;3.30;;;16.80;45.50;;;;;;5450738;26;20814;-66
2024/04/23 09:13:24;;;;;;;2.97;2.77;;;16.30;46.40;;;;;;5451363;26;20440;-65
2024/04/23 09:15:50;;;;;;;3.20;3.00;;;16.50;46.10;;;;;;5451659;26;20493;-65
2024/04/23 09:18:16;;;;;;;5.10;3.00;;;15.50;43.90;;;;;;5451486;26;20704;-65
2024/04/23 09:20:42;;;;;;;4.10;3.60;;;14.10;47.30;;;;;;5450924;26;20746;-65
2024/04/23 09:23:08;;;;;;;3.97;3.67;;;12.40;49.30;;;;;;5450858;26;20518;-65
2024/04/23 09:25:37;;;;;;;3.60;3.30;;;11.20;50.80;;;;;;5451000;26;20550;-65
2024/04/23 09:28:08;;;;;;;3.90;3.60;;;10.40;53.40;;;;;;5450860;26;20272;-65
2024/04/23 09:30:37;;;;;;;4.37;3.97;;;9.90;56.10;;;;;;5450629;26;20451;-66
2024/04/23 09:33:03;;;;;;;3.50;3.20;;;9.70;56.50;;;;;;5450889;26;20546;-65
2024/04/23 09:35:30;;;;;;;2.90;2.70;;;9.40;57.40;;;;;;5450791;26;20261;-65
2024/04/23 09:37:56;;;;;;;4.28;3.92;;;9.40;57.00;;;;;;5471054;21;20249;-59
2024/04/23 09:40:22;;;;;;;3.05;2.45;;;9.30;56.60;;;;;;5376957;26;20279;-62
2024/04/23 09:42:52;;;;;;;3.70;3.03;;;9.50;56.70;;;;;;5379395;26;20220;-62
2024/04/23 09:45:27;;;;;;;4.15;3.38;;;9.50;57.00;;;;;;5348474;26;20854;-62
2024/04/23 09:47:53;;;;;;;3.90;3.50;;;9.20;57.30;;;;;;5379743;26;20220;-62
2024/04/23 09:50:20;;;;;;;5.13;4.07;;;9.10;57.30;;;;;;5379919;26;20733;-62
2024/04/23 09:52:46;;;;;;;4.07;3.78;;;8.60;58.80;;;;;;5348321;26;20551;-61
2024/04/23 09:55:14;;;;;;;3.67;3.37;;;8.80;60.00;;;;;;5380814;26;20220;-61
2024/04/23 09:57:40;;;;;;;3.72;3.30;;;8.90;58.70;;;;;;5382498;26;20798;-60
2024/04/23 10:00:07;;;;;;;3.57;3.00;;;8.90;59.50;;;;;;5382433;26;20282;-62
2024/04/23 10:02:37;;;;;;;3.97;3.67;;;8.70;59.50;;;;;;5382395;26;20592;-63
2024/04/23 10:05:04;;;;;;;5.07;3.00;;;8.70;59.60;;;;;;5382441;26;20251;-60
2024/04/23 10:07:49;;;;;;;3.08;2.88;;;8.50;61.60;;;;;;5382187;26;20257;-60
2024/04/23 10:10:23;;;;;;;3.28;3.03;;;8.50;61.20;;;;;;5382313;26;20267;-61
2024/04/23 10:12:50;;;;;;;4.35;3.70;;;8.40;60.40;;;;;;5382441;26;20220;-62
2024/04/23 10:15:26;;;;;;;5.10;4.43;;;8.20;60.60;;;;;;5382359;26;20684;-61
2024/04/23 10:18:01;;;;;;;4.97;3.88;;;7.50;61.40;;;;;;5382150;26;20235;-61
2024/04/23 10:20:37;;;;;;;4.45;3.35;;;7.30;62.10;;;;;;5381886;26;20212;-61
2024/04/23 10:23:05;;;;;;;4.75;4.35;;;7.20;62.70;;;;;;5351892;26;20219;-61
2024/04/23 10:25:30;;;;;;;3.97;3.60;;;7.00;64.30;;;;;;5382157;26;20223;-61
2024/04/23 10:27:56;;;;;;;5.87;3.70;;;7.00;65.80;;;;;;5382269;26;20356;-61
2024/04/23 10:30:25;;;;;;;5.73;3.20;;;6.80;65.60;;;;;;5381752;26;20567;-61
2024/04/23 10:32:52;;;;;;;4.00;3.70;;;6.60;66.90;;;;;;5351152;26;20863;-61
2024/04/23 10:35:21;;;;;;;4.82;4.25;;;6.70;66.40;;;;;;5351647;26;20640;-61
2024/04/23 10:37:48;;;;;;;3.33;3.13;;;6.90;65.80;;;;;;5381670;26;20224;-61
2024/04/23 10:40:16;;;;;;;4.20;3.40;;;7.20;67.10;;;;;;5381949;26;20216;-61
2024/04/23 10:42:43;;;;;;;3.60;3.30;;;7.50;65.20;;;;;;5381880;26;20220;-62
2024/04/23 10:45:09;;;;;;;2.85;2.65;;;7.50;65.20;;;;;;5350918;26;20224;-61
2024/04/23 10:47:34;;;;;;;3.08;2.78;;;7.60;63.90;;;;;;5381795;26;20263;-61
2024/04/23 10:50:06;;;;;;;4.70;3.63;;;7.30;63.40;;;;;;5381309;26;20729;-61
2024/04/23 10:52:33;;;;;;;4.03;3.38;;;7.20;64.50;;;;;;5381522;26;20227;-61
2024/04/23 10:55:02;;;;;;;5.32;3.45;;;7.30;64.30;;;;;;5381822;26;20324;-61
2024/04/23 10:57:28;;;;;;;3.10;2.90;;;7.20;64.20;;;;;;5381673;26;20284;-61
2024/04/23 10:59:53;;;;;;;12.93;3.87;;;7.10;64.10;;;;;;5381567;26;20340;-61
2024/04/23 11:02:25;;;;;;;3.80;3.50;;;7.10;65.10;;;;;;5381515;26;20266;-61
2024/04/23 11:04:51;;;;;;;5.10;3.47;;;7.00;64.60;;;;;;5381645;26;20597;-62
2024/04/23 11:07:25;;;;;;;3.20;2.90;;;6.90;65.10;;;;;;5380757;26;20224;-62
2024/04/23 11:09:59;;;;;;;4.78;4.00;;;7.00;65.50;;;;;;5350334;26;20234;-61
2024/04/23 11:12:26;;;;;;;4.20;3.00;;;7.10;67.10;;;;;;5381432;26;20634;-61
2024/04/23 11:14:53;;;;;;;3.55;3.28;;;7.50;67.30;;;;;;5350753;26;20224;-61
2024/04/23 11:17:19;;;;;;;4.18;3.78;;;7.70;64.50;;;;;;5381520;26;20217;-61
2024/04/23 11:19:51;;;;;;;5.05;3.70;;;7.90;65.40;;;;;;5381314;26;20341;-61
2024/04/23 11:22:32;;;;;;;3.67;3.10;;;8.20;62.90;;;;;;5350276;26;20285;-62
2024/04/23 11:25:05;;;;;;;4.40;3.17;;;8.50;61.70;;;;;;5350637;26;20745;-62
2024/04/23 11:27:31;;;;;;;3.75;3.35;;;8.60;61.40;;;;;;5381302;26;20264;-62
2024/04/23 11:29:56;;;;;;;5.13;3.40;;;8.40;63.00;;;;;;5381476;26;20274;-62
2024/04/23 11:32:22;;;;;;;4.53;3.40;;;8.20;61.40;;;;;;5381135;26;20227;-62
2024/04/23 11:34:49;;;;;;;3.60;3.40;;;8.00;63.20;;;;;;5381168;26;20219;-61
2024/04/23 11:37:22;;;;;;;3.67;2.85;;;7.70;62.10;;;;;;5381178;26;20225;-61
2024/04/23 11:39:58;;;;;;;3.88;3.38;;;7.30;65.30;;;;;;5380886;26;20275;-61
2024/04/23 11:42:27;;;;;;;4.32;3.40;;;7.00;65.80;;;;;;5380968;26;20215;-61
2024/04/23 11:45:00;;;;;;;3.40;3.10;;;6.90;66.40;;;;;;5381168;26;20215;-61
2024/04/23 11:47:27;;;;;;;3.55;3.25;;;7.00;67.10;;;;;;5380974;26;20217;-61
2024/04/23 11:49:53;;;;;;;4.18;3.78;;;7.20;66.60;;;;;;5380841;26;20279;-62
2024/04/23 11:52:23;;;;;;;5.00;3.97;;;7.20;65.20;;;;;;5349960;26;20245;-62
2024/04/23 11:54:49;;;;;;;7.20;4.57;;;7.20;64.60;;;;;;5381069;26;20328;-62
2024/04/23 11:57:17;;;;;;;3.97;3.55;;;7.20;65.00;;;;;;5380995;26;20630;-62
2024/04/23 11:59:43;;;;;;;3.00;2.80;;;7.20;65.50;;;;;;5380591;26;20261;-61
2024/04/23 12:02:12;;;;;;;2.87;2.63;;;7.20;63.60;;;;;;5380637;26;20220;-61
2024/04/23 12:04:40;;;;;;;3.65;3.35;;;7.10;64.70;;;;;;5380736;26;20247;-61
2024/04/23 12:07:06;;;;;;;4.22;3.53;;;7.20;64.30;;;;;;5380958;26;20222;-61
2024/04/23 12:09:32;;;;;;;3.80;3.40;;;7.30;64.80;;;;;;5381047;26;20695;-62
2024/04/23 12:12:01;;;;;;;3.83;3.43;;;7.30;65.50;;;;;;5349755;26;20275;-62
2024/04/23 12:14:30;;;;;;;3.80;3.13;;;7.50;64.20;;;;;;5380755;26;20329;-62
2024/04/23 12:16:58;;;;;;;2.83;2.30;;;7.50;66.00;;;;;;5380620;26;20787;-62
2024/04/23 12:19:24;;;;;;;3.85;3.10;;;7.90;65.10;;;;;;5380090;26;20611;-62
2024/04/23 12:21:50;;;;;;;3.55;2.95;;;8.50;64.40;;;;;;5380392;26;20329;-61
2024/04/23 12:24:16;;;;;;;3.03;2.83;;;9.00;63.20;;;;;;5349645;26;20232;-62
2024/04/23 12:26:45;;;;;;;3.28;3.08;;;9.10;62.80;;;;;;5380432;26;20220;-62
2024/04/23 12:29:11;;;;;;;4.90;2.85;;;9.10;61.50;;;;;;5380306;26;20279;-62
2024/04/23 12:31:38;;;;;;;5.30;3.30;;;9.10;61.70;;;;;;5380360;26;20592;-62
2024/04/23 12:34:04;;;;;;;5.68;3.50;;;9.20;61.90;;;;;;5380337;26;20459;-62
2024/04/23 12:36:29;;;;;;;4.40;3.33;;;8.80;59.90;;;;;;5380562;26;20284;-62
2024/04/23 12:38:55;;;;;;;5.93;4.07;;;8.60;59.50;;;;;;5380451;26;20259;-62
2024/04/23 12:41:22;;;;;;;3.63;3.03;;;8.40;61.80;;;;;;5379873;26;20721;-62
2024/04/23 12:43:49;;;;;;;4.90;3.28;;;8.20;62.70;;;;;;5380313;26;20217;-61
2024/04/23 12:46:16;;;;;;;4.43;3.80;;;8.10;60.90;;;;;;5380352;26;20224;-62
2024/04/23 12:48:43;;;;;;;8.02;3.65;;;7.90;61.60;;;;;;5380022;26;20228;-62
2024/04/23 12:51:09;;;;;;;2.97;2.67;;;7.90;62.80;;;;;;5379766;26;20595;-62
2024/04/23 12:53:35;;;;;;;3.55;3.22;;;8.10;63.40;;;;;;5380184;26;20657;-62
2024/04/23 12:56:01;;;;;;;4.50;3.13;;;8.10;62.00;;;;;;5380105;26;20215;-62
2024/04/23 12:58:28;;;;;;;5.05;3.63;;;7.90;62.80;;;;;;5379885;26;20242;-62
2024/04/23 13:00:54;;;;;;;5.55;3.60;;;7.70;62.90;;;;;;5379736;26;20219;-62
2024/04/23 13:03:20;;;;;;;3.60;3.30;;;7.70;62.60;;;;;;5379901;26;20598;-61